sensor_id;sensor_type;location;lat;lon;timestamp;P1;durP1;ratioP1;P2;durP2;ratioP2
2386;SDS011;49473;50.772;8.768;2022-08-04T00:01:11;3.03;;;2.87;;
2386;SDS011;49473;50.772;8.768;2022-08-04T00:03:47;3.40;;;3.10;;
2386;SDS011;49473;50.772;8.768;2022-08-04T00:06:28;5.93;;;3.43;;
2386;SDS011;49473;50.772;8.768;2022-08-04T00:09:09;3.70;;;3.40;;
2386;SDS011;49473;50.772;8.768;2022-08-04T00:11:44;3.03;;;2.83;;
2386;SDS011;49473;50.772;8.768;2022-08-04T00:14:14;3.40;;;3.20;;
2386;SDS011;49473;50.772;8.768;2022-08-04T00:16:44;3.60;;;3.40;;
2386;SDS011;49473;50.772;8.768;2022-08-04T00:19:15;3.87;;;3.57;;
2386;SDS011;49473;50.772;8.768;2022-08-04T00:21:47;3.40;;;3.13;;
2386;SDS011;49473;50.772;8.768;2022-08-04T00:24:17;3.20;;;3.00;;
2386;SDS011;49473;50.772;8.768;2022-08-04T00:26:46;3.80;;;3.07;;
2386;SDS011;49473;50.772;8.768;2022-08-04T00:29:15;4.00;;;3.70;;
2386;SDS011;49473;50.772;8.768;2022-08-04T00:31:41;3.23;;;3.10;;
2386;SDS011;49473;50.772;8.768;2022-08-04T00:34:09;5.87;;;5.10;;
2386;SDS011;49473;50.772;8.768;2022-08-04T00:36:38;3.53;;;3.20;;
2386;SDS011;49473;50.772;8.768;2022-08-04T00:39:05;3.73;;;3.03;;
2386;SDS011;49473;50.772;8.768;2022-08-04T00:41:39;3.80;;;3.60;;
2386;SDS011;49473;50.772;8.768;2022-08-04T00:44:23;3.77;;;3.50;;
2386;SDS011;49473;50.772;8.768;2022-08-04T00:47:03;4.07;;;3.77;;
2386;SDS011;49473;50.772;8.768;2022-08-04T00:49:51;3.90;;;3.37;;
2386;SDS011;49473;50.772;8.768;2022-08-04T00:52:32;3.90;;;3.30;;
2386;SDS011;49473;50.772;8.768;2022-08-04T00:55:22;3.57;;;3.40;;
2386;SDS011;49473;50.772;8.768;2022-08-04T00:58:15;3.40;;;3.20;;
2386;SDS011;49473;50.772;8.768;2022-08-04T01:01:01;3.53;;;3.27;;
2386;SDS011;49473;50.772;8.768;2022-08-04T01:03:48;3.30;;;3.10;;
2386;SDS011;49473;50.772;8.768;2022-08-04T01:06:25;3.27;;;3.07;;
2386;SDS011;49473;50.772;8.768;2022-08-04T01:09:02;3.27;;;3.03;;
2386;SDS011;49473;50.772;8.768;2022-08-04T01:11:43;6.20;;;3.43;;
2386;SDS011;49473;50.772;8.768;2022-08-04T01:14:31;3.63;;;3.40;;
2386;SDS011;49473;50.772;8.768;2022-08-04T01:17:18;3.80;;;3.60;;
2386;SDS011;49473;50.772;8.768;2022-08-04T01:19:52;4.60;;;4.20;;
2386;SDS011;49473;50.772;8.768;2022-08-04T01:22:28;3.90;;;3.60;;
2386;SDS011;49473;50.772;8.768;2022-08-04T01:25:28;3.90;;;3.60;;
2386;SDS011;49473;50.772;8.768;2022-08-04T01:28:23;3.50;;;3.30;;
2386;SDS011;49473;50.772;8.768;2022-08-04T01:30:57;3.97;;;3.43;;
2386;SDS011;49473;50.772;8.768;2022-08-04T01:33:31;3.17;;;2.97;;
2386;SDS011;49473;50.772;8.768;2022-08-04T01:36:03;3.53;;;3.23;;
2386;SDS011;49473;50.772;8.768;2022-08-04T01:38:32;3.80;;;3.50;;
2386;SDS011;49473;50.772;8.768;2022-08-04T01:41:01;3.90;;;3.60;;
2386;SDS011;49473;50.772;8.768;2022-08-04T01:43:29;3.90;;;3.60;;
2386;SDS011;49473;50.772;8.768;2022-08-04T01:46:00;9.20;;;3.90;;
2386;SDS011;49473;50.772;8.768;2022-08-04T01:48:29;4.10;;;3.80;;
2386;SDS011;49473;50.772;8.768;2022-08-04T01:50:57;3.90;;;3.70;;
2386;SDS011;49473;50.772;8.768;2022-08-04T01:53:29;3.30;;;3.10;;
2386;SDS011;49473;50.772;8.768;2022-08-04T01:55:56;4.10;;;3.40;;
2386;SDS011;49473;50.772;8.768;2022-08-04T01:58:23;3.90;;;3.67;;
2386;SDS011;49473;50.772;8.768;2022-08-04T02:00:54;3.67;;;3.47;;
2386;SDS011;49473;50.772;8.768;2022-08-04T02:03:25;4.27;;;3.97;;
2386;SDS011;49473;50.772;8.768;2022-08-04T02:05:52;3.90;;;3.57;;
2386;SDS011;49473;50.772;8.768;2022-08-04T02:08:26;3.70;;;3.50;;
2386;SDS011;49473;50.772;8.768;2022-08-04T02:11:11;4.30;;;4.00;;
2386;SDS011;49473;50.772;8.768;2022-08-04T02:13:44;3.63;;;3.43;;
2386;SDS011;49473;50.772;8.768;2022-08-04T02:16:22;3.70;;;3.50;;
2386;SDS011;49473;50.772;8.768;2022-08-04T02:18:59;4.13;;;3.93;;
2386;SDS011;49473;50.772;8.768;2022-08-04T02:21:29;4.00;;;3.70;;
2386;SDS011;49473;50.772;8.768;2022-08-04T02:23:58;4.00;;;3.80;;
2386;SDS011;49473;50.772;8.768;2022-08-04T02:26:29;4.27;;;3.97;;
2386;SDS011;49473;50.772;8.768;2022-08-04T02:28:59;3.90;;;3.60;;
2386;SDS011;49473;50.772;8.768;2022-08-04T02:31:36;3.30;;;3.10;;
2386;SDS011;49473;50.772;8.768;2022-08-04T02:34:08;3.20;;;3.10;;
2386;SDS011;49473;50.772;8.768;2022-08-04T02:36:40;4.63;;;4.03;;
2386;SDS011;49473;50.772;8.768;2022-08-04T02:39:08;4.47;;;3.70;;
2386;SDS011;49473;50.772;8.768;2022-08-04T02:41:36;3.63;;;3.40;;
2386;SDS011;49473;50.772;8.768;2022-08-04T02:44:05;3.77;;;3.40;;
2386;SDS011;49473;50.772;8.768;2022-08-04T02:46:34;3.97;;;3.77;;
2386;SDS011;49473;50.772;8.768;2022-08-04T02:49:02;3.47;;;3.27;;
2386;SDS011;49473;50.772;8.768;2022-08-04T02:51:33;4.40;;;4.00;;
2386;SDS011;49473;50.772;8.768;2022-08-04T02:54:02;3.43;;;3.13;;
2386;SDS011;49473;50.772;8.768;2022-08-04T02:56:31;4.00;;;3.50;;
2386;SDS011;49473;50.772;8.768;2022-08-04T02:59:00;4.10;;;3.80;;
2386;SDS011;49473;50.772;8.768;2022-08-04T03:01:28;3.40;;;3.20;;
2386;SDS011;49473;50.772;8.768;2022-08-04T03:04:01;3.60;;;3.40;;
2386;SDS011;49473;50.772;8.768;2022-08-04T03:10:11;6.27;;;5.77;;
2386;SDS011;49473;50.772;8.768;2022-08-04T03:13:04;6.70;;;6.20;;
2386;SDS011;49473;50.772;8.768;2022-08-04T03:16:00;6.23;;;5.73;;
2386;SDS011;49473;50.772;8.768;2022-08-04T03:24:58;5.83;;;5.30;;
2386;SDS011;49473;50.772;8.768;2022-08-04T03:27:56;6.50;;;5.87;;
2386;SDS011;49473;50.772;8.768;2022-08-04T03:30:47;6.50;;;5.90;;
2386;SDS011;49473;50.772;8.768;2022-08-04T03:33:36;6.30;;;5.80;;
2386;SDS011;49473;50.772;8.768;2022-08-04T03:42:22;5.70;;;5.20;;
2386;SDS011;49473;50.772;8.768;2022-08-04T03:48:12;6.23;;;5.83;;
2386;SDS011;49473;50.772;8.768;2022-08-04T03:51:11;6.47;;;5.97;;
2386;SDS011;49473;50.772;8.768;2022-08-04T03:54:08;6.37;;;5.77;;
2386;SDS011;49473;50.772;8.768;2022-08-04T03:56:59;7.70;;;5.80;;
2386;SDS011;49473;50.772;8.768;2022-08-04T03:59:57;6.43;;;5.80;;
2386;SDS011;49473;50.772;8.768;2022-08-04T04:02:49;6.37;;;5.80;;
2386;SDS011;49473;50.772;8.768;2022-08-04T04:05:47;6.00;;;5.50;;
2386;SDS011;49473;50.772;8.768;2022-08-04T04:11:31;8.03;;;6.73;;
2386;SDS011;49473;50.772;8.768;2022-08-04T04:14:25;5.60;;;5.20;;
2386;SDS011;49473;50.772;8.768;2022-08-04T04:17:23;5.57;;;5.10;;
2386;SDS011;49473;50.772;8.768;2022-08-04T04:23:09;9.20;;;6.87;;
2386;SDS011;49473;50.772;8.768;2022-08-04T04:25:50;7.10;;;6.30;;
2386;SDS011;49473;50.772;8.768;2022-08-04T04:28:37;8.10;;;6.70;;
2386;SDS011;49473;50.772;8.768;2022-08-04T04:31:32;8.40;;;6.70;;
2386;SDS011;49473;50.772;8.768;2022-08-04T04:34:08;7.77;;;6.47;;
2386;SDS011;49473;50.772;8.768;2022-08-04T04:36:56;8.47;;;6.07;;
2386;SDS011;49473;50.772;8.768;2022-08-04T04:39:40;7.47;;;5.90;;
2386;SDS011;49473;50.772;8.768;2022-08-04T04:42:18;7.43;;;6.33;;
2386;SDS011;49473;50.772;8.768;2022-08-04T04:45:11;8.80;;;6.80;;
2386;SDS011;49473;50.772;8.768;2022-08-04T04:47:46;8.33;;;6.60;;
2386;SDS011;49473;50.772;8.768;2022-08-04T04:50:25;8.20;;;6.90;;
2386;SDS011;49473;50.772;8.768;2022-08-04T04:53:03;8.10;;;7.00;;
2386;SDS011;49473;50.772;8.768;2022-08-04T04:55:39;8.97;;;7.30;;
2386;SDS011;49473;50.772;8.768;2022-08-04T04:58:10;7.57;;;6.77;;
2386;SDS011;49473;50.772;8.768;2022-08-04T05:00:44;7.63;;;6.60;;
2386;SDS011;49473;50.772;8.768;2022-08-04T05:03:29;8.13;;;6.83;;
2386;SDS011;49473;50.772;8.768;2022-08-04T05:06:24;8.00;;;6.93;;
2386;SDS011;49473;50.772;8.768;2022-08-04T05:14:50;3.17;;;2.97;;
2386;SDS011;49473;50.772;8.768;2022-08-04T05:17:21;3.60;;;3.40;;
2386;SDS011;49473;50.772;8.768;2022-08-04T05:19:53;3.70;;;3.50;;
2386;SDS011;49473;50.772;8.768;2022-08-04T05:22:26;6.33;;;3.67;;
2386;SDS011;49473;50.772;8.768;2022-08-04T05:25:00;4.10;;;3.60;;
2386;SDS011;49473;50.772;8.768;2022-08-04T05:27:33;5.13;;;3.33;;
2386;SDS011;49473;50.772;8.768;2022-08-04T05:30:04;3.23;;;3.03;;
2386;SDS011;49473;50.772;8.768;2022-08-04T05:32:34;3.73;;;3.43;;
2386;SDS011;49473;50.772;8.768;2022-08-04T05:35:08;5.10;;;3.93;;
2386;SDS011;49473;50.772;8.768;2022-08-04T05:37:37;3.37;;;3.07;;
2386;SDS011;49473;50.772;8.768;2022-08-04T05:40:08;4.30;;;3.80;;
2386;SDS011;49473;50.772;8.768;2022-08-04T05:42:38;3.53;;;3.33;;
2386;SDS011;49473;50.772;8.768;2022-08-04T05:45:06;3.77;;;3.47;;
2386;SDS011;49473;50.772;8.768;2022-08-04T05:47:34;3.60;;;3.30;;
2386;SDS011;49473;50.772;8.768;2022-08-04T05:50:02;4.60;;;3.90;;
2386;SDS011;49473;50.772;8.768;2022-08-04T05:52:31;3.90;;;3.67;;
2386;SDS011;49473;50.772;8.768;2022-08-04T05:55:00;3.80;;;3.50;;
2386;SDS011;49473;50.772;8.768;2022-08-04T05:57:28;3.47;;;3.20;;
2386;SDS011;49473;50.772;8.768;2022-08-04T05:59:57;3.07;;;2.80;;
2386;SDS011;49473;50.772;8.768;2022-08-04T06:02:26;3.23;;;3.03;;
2386;SDS011;49473;50.772;8.768;2022-08-04T06:04:55;3.63;;;3.20;;
2386;SDS011;49473;50.772;8.768;2022-08-04T06:07:24;3.20;;;2.90;;
2386;SDS011;49473;50.772;8.768;2022-08-04T06:09:51;5.00;;;3.43;;
2386;SDS011;49473;50.772;8.768;2022-08-04T06:12:19;3.80;;;3.37;;
2386;SDS011;49473;50.772;8.768;2022-08-04T06:14:52;3.37;;;3.10;;
2386;SDS011;49473;50.772;8.768;2022-08-04T06:17:23;3.83;;;3.53;;
2386;SDS011;49473;50.772;8.768;2022-08-04T06:19:55;2.90;;;2.63;;
2386;SDS011;49473;50.772;8.768;2022-08-04T06:22:22;3.30;;;2.83;;
2386;SDS011;49473;50.772;8.768;2022-08-04T06:24:50;4.30;;;3.00;;
2386;SDS011;49473;50.772;8.768;2022-08-04T06:27:19;3.27;;;3.00;;
2386;SDS011;49473;50.772;8.768;2022-08-04T06:29:47;3.37;;;2.90;;
2386;SDS011;49473;50.772;8.768;2022-08-04T06:32:16;4.87;;;3.10;;
2386;SDS011;49473;50.772;8.768;2022-08-04T06:34:52;3.60;;;3.40;;
2386;SDS011;49473;50.772;8.768;2022-08-04T06:37:20;2.90;;;2.70;;
2386;SDS011;49473;50.772;8.768;2022-08-04T06:39:49;3.57;;;3.17;;
2386;SDS011;49473;50.772;8.768;2022-08-04T06:42:18;3.33;;;3.10;;
2386;SDS011;49473;50.772;8.768;2022-08-04T06:44:48;5.00;;;2.80;;
2386;SDS011;49473;50.772;8.768;2022-08-04T06:47:17;4.83;;;3.07;;
2386;SDS011;49473;50.772;8.768;2022-08-04T06:49:46;3.00;;;2.80;;
2386;SDS011;49473;50.772;8.768;2022-08-04T06:52:14;3.40;;;3.20;;
2386;SDS011;49473;50.772;8.768;2022-08-04T06:54:43;3.10;;;2.90;;
2386;SDS011;49473;50.772;8.768;2022-08-04T06:57:10;3.30;;;3.00;;
2386;SDS011;49473;50.772;8.768;2022-08-04T06:59:40;3.10;;;2.90;;
2386;SDS011;49473;50.772;8.768;2022-08-04T07:02:08;3.50;;;3.20;;
2386;SDS011;49473;50.772;8.768;2022-08-04T07:04:40;3.10;;;2.87;;
2386;SDS011;49473;50.772;8.768;2022-08-04T07:07:08;3.73;;;3.33;;
2386;SDS011;49473;50.772;8.768;2022-08-04T07:09:36;3.40;;;3.13;;
2386;SDS011;49473;50.772;8.768;2022-08-04T07:12:04;4.43;;;3.20;;
2386;SDS011;49473;50.772;8.768;2022-08-04T07:14:31;3.40;;;2.80;;
2386;SDS011;49473;50.772;8.768;2022-08-04T07:17:00;3.60;;;2.83;;
2386;SDS011;49473;50.772;8.768;2022-08-04T07:19:29;3.53;;;3.10;;
2386;SDS011;49473;50.772;8.768;2022-08-04T07:21:58;3.73;;;3.00;;
2386;SDS011;49473;50.772;8.768;2022-08-04T07:24:29;3.10;;;2.83;;
2386;SDS011;49473;50.772;8.768;2022-08-04T07:26:56;3.80;;;2.83;;
2386;SDS011;49473;50.772;8.768;2022-08-04T07:29:23;4.13;;;3.43;;
2386;SDS011;49473;50.772;8.768;2022-08-04T07:31:51;3.70;;;3.40;;
2386;SDS011;49473;50.772;8.768;2022-08-04T07:34:19;4.53;;;3.30;;
2386;SDS011;49473;50.772;8.768;2022-08-04T07:36:46;3.43;;;3.10;;
2386;SDS011;49473;50.772;8.768;2022-08-04T07:39:15;3.43;;;3.13;;
2386;SDS011;49473;50.772;8.768;2022-08-04T07:41:42;3.60;;;3.40;;
2386;SDS011;49473;50.772;8.768;2022-08-04T07:44:09;3.17;;;2.97;;
2386;SDS011;49473;50.772;8.768;2022-08-04T07:46:38;4.60;;;3.30;;
2386;SDS011;49473;50.772;8.768;2022-08-04T07:49:05;4.67;;;3.30;;
2386;SDS011;49473;50.772;8.768;2022-08-04T07:51:32;3.00;;;2.80;;
2386;SDS011;49473;50.772;8.768;2022-08-04T07:54:00;8.60;;;3.50;;
2386;SDS011;49473;50.772;8.768;2022-08-04T07:56:30;3.93;;;3.37;;
2386;SDS011;49473;50.772;8.768;2022-08-04T07:58:58;2.57;;;2.47;;
2386;SDS011;49473;50.772;8.768;2022-08-04T08:01:25;2.57;;;2.47;;
2386;SDS011;49473;50.772;8.768;2022-08-04T08:03:54;3.13;;;2.93;;
2386;SDS011;49473;50.772;8.768;2022-08-04T08:06:21;4.37;;;2.57;;
2386;SDS011;49473;50.772;8.768;2022-08-04T08:08:48;2.97;;;2.77;;
2386;SDS011;49473;50.772;8.768;2022-08-04T08:11:16;3.80;;;2.80;;
2386;SDS011;49473;50.772;8.768;2022-08-04T08:13:44;6.50;;;3.40;;
2386;SDS011;49473;50.772;8.768;2022-08-04T08:16:12;4.67;;;2.93;;
2386;SDS011;49473;50.772;8.768;2022-08-04T08:18:39;3.70;;;2.97;;
2386;SDS011;49473;50.772;8.768;2022-08-04T08:21:06;4.30;;;2.90;;
2386;SDS011;49473;50.772;8.768;2022-08-04T08:23:33;2.53;;;2.43;;
2386;SDS011;49473;50.772;8.768;2022-08-04T08:26:00;3.27;;;2.97;;
2386;SDS011;49473;50.772;8.768;2022-08-04T08:28:27;2.77;;;2.67;;
2386;SDS011;49473;50.772;8.768;2022-08-04T08:30:55;4.80;;;3.27;;
2386;SDS011;49473;50.772;8.768;2022-08-04T08:33:22;2.87;;;2.67;;
2386;SDS011;49473;50.772;8.768;2022-08-04T08:35:51;2.70;;;2.60;;
2386;SDS011;49473;50.772;8.768;2022-08-04T08:38:33;4.13;;;2.50;;
2386;SDS011;49473;50.772;8.768;2022-08-04T08:41:12;3.60;;;2.97;;
2386;SDS011;49473;50.772;8.768;2022-08-04T08:44:02;2.80;;;2.60;;
2386;SDS011;49473;50.772;8.768;2022-08-04T08:46:42;3.10;;;2.90;;
2386;SDS011;49473;50.772;8.768;2022-08-04T08:49:26;2.50;;;2.40;;
2386;SDS011;49473;50.772;8.768;2022-08-04T08:52:16;3.30;;;3.10;;
2386;SDS011;49473;50.772;8.768;2022-08-04T08:54:53;3.10;;;2.90;;
2386;SDS011;49473;50.772;8.768;2022-08-04T08:57:33;3.13;;;2.83;;
2386;SDS011;49473;50.772;8.768;2022-08-04T09:00:08;3.67;;;2.73;;
2386;SDS011;49473;50.772;8.768;2022-08-04T09:02:53;3.97;;;3.57;;
2386;SDS011;49473;50.772;8.768;2022-08-04T09:11:36;4.43;;;2.63;;
2386;SDS011;49473;50.772;8.768;2022-08-04T09:14:07;2.50;;;2.30;;
2386;SDS011;49473;50.772;8.768;2022-08-04T09:16:41;3.23;;;2.67;;
2386;SDS011;49473;50.772;8.768;2022-08-04T09:19:16;6.57;;;2.87;;
2386;SDS011;49473;50.772;8.768;2022-08-04T09:21:50;3.47;;;2.83;;
2386;SDS011;49473;50.772;8.768;2022-08-04T09:24:24;5.30;;;3.67;;
2386;SDS011;49473;50.772;8.768;2022-08-04T09:26:59;4.53;;;3.07;;
2386;SDS011;49473;50.772;8.768;2022-08-04T09:29:29;2.90;;;2.80;;
2386;SDS011;49473;50.772;8.768;2022-08-04T09:32:03;4.53;;;2.77;;
2386;SDS011;49473;50.772;8.768;2022-08-04T09:34:40;4.07;;;2.60;;
2386;SDS011;49473;50.772;8.768;2022-08-04T09:37:16;2.77;;;2.50;;
2386;SDS011;49473;50.772;8.768;2022-08-04T09:39:55;3.23;;;2.30;;
2386;SDS011;49473;50.772;8.768;2022-08-04T09:42:33;3.47;;;2.77;;
2386;SDS011;49473;50.772;8.768;2022-08-04T09:45:08;2.60;;;2.50;;
2386;SDS011;49473;50.772;8.768;2022-08-04T09:47:41;2.60;;;2.40;;
2386;SDS011;49473;50.772;8.768;2022-08-04T09:50:19;2.40;;;2.30;;
2386;SDS011;49473;50.772;8.768;2022-08-04T09:52:55;3.70;;;2.73;;
2386;SDS011;49473;50.772;8.768;2022-08-04T09:55:30;3.33;;;2.07;;
2386;SDS011;49473;50.772;8.768;2022-08-04T09:58:07;2.30;;;2.20;;
2386;SDS011;49473;50.772;8.768;2022-08-04T10:00:43;1.90;;;1.80;;
2386;SDS011;49473;50.772;8.768;2022-08-04T10:03:13;2.33;;;1.90;;
2386;SDS011;49473;50.772;8.768;2022-08-04T10:05:43;2.33;;;1.83;;
2386;SDS011;49473;50.772;8.768;2022-08-04T10:08:22;3.30;;;2.00;;
2386;SDS011;49473;50.772;8.768;2022-08-04T10:11:05;1.80;;;1.70;;
2386;SDS011;49473;50.772;8.768;2022-08-04T10:13:41;2.40;;;1.80;;
2386;SDS011;49473;50.772;8.768;2022-08-04T10:16:19;1.60;;;1.50;;
2386;SDS011;49473;50.772;8.768;2022-08-04T10:19:00;1.80;;;1.70;;
2386;SDS011;49473;50.772;8.768;2022-08-04T10:21:35;1.30;;;1.30;;
2386;SDS011;49473;50.772;8.768;2022-08-04T10:24:14;1.90;;;1.40;;
2386;SDS011;49473;50.772;8.768;2022-08-04T10:26:56;3.53;;;1.63;;
2386;SDS011;49473;50.772;8.768;2022-08-04T10:29:26;2.10;;;2.00;;
2386;SDS011;49473;50.772;8.768;2022-08-04T10:32:03;1.90;;;1.80;;
2386;SDS011;49473;50.772;8.768;2022-08-04T10:34:35;4.00;;;1.53;;
2386;SDS011;49473;50.772;8.768;2022-08-04T10:37:10;1.77;;;1.67;;
2386;SDS011;49473;50.772;8.768;2022-08-04T10:39:45;2.10;;;1.47;;
2386;SDS011;49473;50.772;8.768;2022-08-04T10:42:31;2.57;;;1.50;;
2386;SDS011;49473;50.772;8.768;2022-08-04T10:45:08;2.70;;;1.50;;
2386;SDS011;49473;50.772;8.768;2022-08-04T10:47:40;1.23;;;1.13;;
2386;SDS011;49473;50.772;8.768;2022-08-04T10:50:12;2.20;;;1.27;;
2386;SDS011;49473;50.772;8.768;2022-08-04T10:52:43;2.50;;;1.57;;
2386;SDS011;49473;50.772;8.768;2022-08-04T10:55:15;1.70;;;1.60;;
2386;SDS011;49473;50.772;8.768;2022-08-04T10:57:45;1.13;;;1.10;;
2386;SDS011;49473;50.772;8.768;2022-08-04T11:00:17;3.73;;;1.50;;
2386;SDS011;49473;50.772;8.768;2022-08-04T11:02:50;2.63;;;2.43;;
2386;SDS011;49473;50.772;8.768;2022-08-04T11:05:23;3.47;;;1.60;;
2386;SDS011;49473;50.772;8.768;2022-08-04T11:07:57;3.23;;;1.40;;
2386;SDS011;49473;50.772;8.768;2022-08-04T11:10:28;1.40;;;1.30;;
2386;SDS011;49473;50.772;8.768;2022-08-04T11:12:58;1.37;;;1.20;;
2386;SDS011;49473;50.772;8.768;2022-08-04T11:15:32;1.50;;;1.20;;
2386;SDS011;49473;50.772;8.768;2022-08-04T11:18:04;0.90;;;0.90;;
2386;SDS011;49473;50.772;8.768;2022-08-04T11:20:36;2.57;;;1.23;;
2386;SDS011;49473;50.772;8.768;2022-08-04T11:23:09;1.20;;;1.10;;
2386;SDS011;49473;50.772;8.768;2022-08-04T11:25:40;3.27;;;1.40;;
2386;SDS011;49473;50.772;8.768;2022-08-04T11:28:17;1.40;;;1.30;;
2386;SDS011;49473;50.772;8.768;2022-08-04T11:30:56;2.33;;;1.50;;
2386;SDS011;49473;50.772;8.768;2022-08-04T11:33:30;2.50;;;1.20;;
2386;SDS011;49473;50.772;8.768;2022-08-04T11:36:13;1.20;;;1.20;;
2386;SDS011;49473;50.772;8.768;2022-08-04T11:38:48;1.60;;;1.50;;
2386;SDS011;49473;50.772;8.768;2022-08-04T11:41:25;1.50;;;1.40;;
2386;SDS011;49473;50.772;8.768;2022-08-04T11:44:00;2.87;;;1.57;;
2386;SDS011;49473;50.772;8.768;2022-08-04T11:46:31;2.00;;;1.20;;
2386;SDS011;49473;50.772;8.768;2022-08-04T11:49:04;1.30;;;1.30;;
2386;SDS011;49473;50.772;8.768;2022-08-04T11:51:33;1.90;;;1.53;;
2386;SDS011;49473;50.772;8.768;2022-08-04T11:54:03;1.90;;;1.60;;
2386;SDS011;49473;50.772;8.768;2022-08-04T11:56:30;1.87;;;1.00;;
2386;SDS011;49473;50.772;8.768;2022-08-04T11:58:57;2.53;;;1.33;;
2386;SDS011;49473;50.772;8.768;2022-08-04T12:01:27;1.40;;;1.40;;
2386;SDS011;49473;50.772;8.768;2022-08-04T12:04:02;1.57;;;1.13;;
2386;SDS011;49473;50.772;8.768;2022-08-04T12:06:37;1.40;;;1.40;;
2386;SDS011;49473;50.772;8.768;2022-08-04T12:09:14;1.00;;;1.00;;
2386;SDS011;49473;50.772;8.768;2022-08-04T12:11:54;2.10;;;1.30;;
2386;SDS011;49473;50.772;8.768;2022-08-04T12:14:40;2.90;;;1.40;;
2386;SDS011;49473;50.772;8.768;2022-08-04T12:17:21;4.30;;;1.50;;
2386;SDS011;49473;50.772;8.768;2022-08-04T12:19:55;1.20;;;1.20;;
2386;SDS011;49473;50.772;8.768;2022-08-04T12:22:26;1.40;;;1.40;;
2386;SDS011;49473;50.772;8.768;2022-08-04T12:24:58;2.73;;;1.40;;
2386;SDS011;49473;50.772;8.768;2022-08-04T12:27:28;1.27;;;1.27;;
2386;SDS011;49473;50.772;8.768;2022-08-04T12:29:58;2.23;;;1.10;;
2386;SDS011;49473;50.772;8.768;2022-08-04T12:32:28;2.97;;;1.40;;
2386;SDS011;49473;50.772;8.768;2022-08-04T12:35:06;1.17;;;1.17;;
2386;SDS011;49473;50.772;8.768;2022-08-04T12:37:46;1.20;;;1.10;;
2386;SDS011;49473;50.772;8.768;2022-08-04T12:40:19;3.27;;;1.47;;
2386;SDS011;49473;50.772;8.768;2022-08-04T12:42:52;1.27;;;1.20;;
2386;SDS011;49473;50.772;8.768;2022-08-04T12:45:24;1.10;;;1.00;;
2386;SDS011;49473;50.772;8.768;2022-08-04T12:47:51;1.37;;;1.27;;
2386;SDS011;49473;50.772;8.768;2022-08-04T12:50:21;2.60;;;1.33;;
2386;SDS011;49473;50.772;8.768;2022-08-04T12:52:50;1.40;;;1.30;;
2386;SDS011;49473;50.772;8.768;2022-08-04T12:55:21;1.67;;;1.57;;
2386;SDS011;49473;50.772;8.768;2022-08-04T12:57:50;1.00;;;1.00;;
2386;SDS011;49473;50.772;8.768;2022-08-04T13:00:22;1.57;;;1.07;;
2386;SDS011;49473;50.772;8.768;2022-08-04T13:02:51;1.20;;;1.20;;
2386;SDS011;49473;50.772;8.768;2022-08-04T13:05:20;1.47;;;1.40;;
2386;SDS011;49473;50.772;8.768;2022-08-04T13:07:49;1.10;;;1.10;;
2386;SDS011;49473;50.772;8.768;2022-08-04T13:10:17;1.43;;;1.30;;
2386;SDS011;49473;50.772;8.768;2022-08-04T13:12:52;1.70;;;1.27;;
2386;SDS011;49473;50.772;8.768;2022-08-04T13:15:22;1.10;;;1.10;;
2386;SDS011;49473;50.772;8.768;2022-08-04T13:17:51;1.00;;;1.00;;
2386;SDS011;49473;50.772;8.768;2022-08-04T13:20:25;1.50;;;1.10;;
2386;SDS011;49473;50.772;8.768;2022-08-04T13:23:02;1.20;;;1.10;;
2386;SDS011;49473;50.772;8.768;2022-08-04T13:25:32;1.37;;;1.27;;
2386;SDS011;49473;50.772;8.768;2022-08-04T13:28:04;1.23;;;1.20;;
2386;SDS011;49473;50.772;8.768;2022-08-04T13:30:34;1.97;;;0.90;;
2386;SDS011;49473;50.772;8.768;2022-08-04T13:33:01;2.27;;;1.00;;
2386;SDS011;49473;50.772;8.768;2022-08-04T13:35:29;2.43;;;1.30;;
2386;SDS011;49473;50.772;8.768;2022-08-04T13:37:58;1.70;;;1.23;;
2386;SDS011;49473;50.772;8.768;2022-08-04T13:40:26;2.10;;;1.23;;
2386;SDS011;49473;50.772;8.768;2022-08-04T13:42:55;1.67;;;1.23;;
2386;SDS011;49473;50.772;8.768;2022-08-04T13:45:23;1.67;;;1.00;;
2386;SDS011;49473;50.772;8.768;2022-08-04T13:47:50;1.20;;;1.20;;
2386;SDS011;49473;50.772;8.768;2022-08-04T13:50:24;2.77;;;1.17;;
2386;SDS011;49473;50.772;8.768;2022-08-04T13:52:54;1.10;;;1.10;;
2386;SDS011;49473;50.772;8.768;2022-08-04T13:55:24;3.23;;;1.17;;
2386;SDS011;49473;50.772;8.768;2022-08-04T13:57:54;1.53;;;1.10;;
2386;SDS011;49473;50.772;8.768;2022-08-04T14:00:35;1.30;;;1.20;;
2386;SDS011;49473;50.772;8.768;2022-08-04T14:03:09;2.93;;;1.60;;
2386;SDS011;49473;50.772;8.768;2022-08-04T14:05:41;1.77;;;1.40;;
2386;SDS011;49473;50.772;8.768;2022-08-04T14:08:11;2.07;;;1.53;;
2386;SDS011;49473;50.772;8.768;2022-08-04T14:10:51;1.17;;;1.17;;
2386;SDS011;49473;50.772;8.768;2022-08-04T14:13:28;1.07;;;1.00;;
2386;SDS011;49473;50.772;8.768;2022-08-04T14:15:56;0.93;;;0.93;;
2386;SDS011;49473;50.772;8.768;2022-08-04T14:18:23;1.20;;;1.10;;
2386;SDS011;49473;50.772;8.768;2022-08-04T14:20:58;1.20;;;1.20;;
2386;SDS011;49473;50.772;8.768;2022-08-04T14:23:36;1.30;;;1.30;;
2386;SDS011;49473;50.772;8.768;2022-08-04T14:26:14;1.37;;;1.20;;
2386;SDS011;49473;50.772;8.768;2022-08-04T14:28:44;2.83;;;1.00;;
2386;SDS011;49473;50.772;8.768;2022-08-04T14:31:12;3.70;;;1.17;;
2386;SDS011;49473;50.772;8.768;2022-08-04T14:33:40;1.53;;;1.40;;
2386;SDS011;49473;50.772;8.768;2022-08-04T14:36:08;1.33;;;1.13;;
2386;SDS011;49473;50.772;8.768;2022-08-04T14:38:42;1.10;;;1.10;;
2386;SDS011;49473;50.772;8.768;2022-08-04T14:41:12;1.53;;;1.30;;
2386;SDS011;49473;50.772;8.768;2022-08-04T14:43:41;1.33;;;1.33;;
2386;SDS011;49473;50.772;8.768;2022-08-04T14:46:11;2.80;;;1.30;;
2386;SDS011;49473;50.772;8.768;2022-08-04T14:48:38;1.83;;;1.40;;
2386;SDS011;49473;50.772;8.768;2022-08-04T14:51:11;1.30;;;1.20;;
2386;SDS011;49473;50.772;8.768;2022-08-04T14:53:39;1.50;;;1.40;;
2386;SDS011;49473;50.772;8.768;2022-08-04T14:56:12;1.80;;;1.30;;
2386;SDS011;49473;50.772;8.768;2022-08-04T14:58:39;1.60;;;1.53;;
2386;SDS011;49473;50.772;8.768;2022-08-04T15:01:06;1.20;;;1.20;;
2386;SDS011;49473;50.772;8.768;2022-08-04T15:03:36;1.80;;;1.50;;
2386;SDS011;49473;50.772;8.768;2022-08-04T15:06:05;1.63;;;1.53;;
2386;SDS011;49473;50.772;8.768;2022-08-04T15:08:32;1.13;;;1.03;;
2386;SDS011;49473;50.772;8.768;2022-08-04T15:10:59;1.60;;;1.37;;
2386;SDS011;49473;50.772;8.768;2022-08-04T15:13:27;1.80;;;1.53;;
2386;SDS011;49473;50.772;8.768;2022-08-04T15:15:54;1.10;;;1.10;;
2386;SDS011;49473;50.772;8.768;2022-08-04T15:18:21;1.40;;;1.30;;
2386;SDS011;49473;50.772;8.768;2022-08-04T15:20:51;6.30;;;1.70;;
2386;SDS011;49473;50.772;8.768;2022-08-04T15:23:18;25.67;;;3.13;;
2386;SDS011;49473;50.772;8.768;2022-08-04T15:25:46;14.63;;;2.50;;
2386;SDS011;49473;50.772;8.768;2022-08-04T15:28:17;9.90;;;1.93;;
2386;SDS011;49473;50.772;8.768;2022-08-04T15:30:47;5.13;;;1.47;;
2386;SDS011;49473;50.772;8.768;2022-08-04T15:33:15;3.00;;;1.60;;
2386;SDS011;49473;50.772;8.768;2022-08-04T15:35:48;9.40;;;1.70;;
2386;SDS011;49473;50.772;8.768;2022-08-04T15:38:22;14.50;;;2.47;;
2386;SDS011;49473;50.772;8.768;2022-08-04T15:40:55;9.47;;;1.90;;
2386;SDS011;49473;50.772;8.768;2022-08-04T15:43:37;8.10;;;1.90;;
2386;SDS011;49473;50.772;8.768;2022-08-04T15:46:15;1.70;;;1.40;;
2386;SDS011;49473;50.772;8.768;2022-08-04T15:48:51;1.33;;;1.27;;
2386;SDS011;49473;50.772;8.768;2022-08-04T15:51:24;1.57;;;1.47;;
2386;SDS011;49473;50.772;8.768;2022-08-04T15:56:47;1.80;;;1.30;;
2386;SDS011;49473;50.772;8.768;2022-08-04T15:59:14;1.30;;;1.20;;
2386;SDS011;49473;50.772;8.768;2022-08-04T16:01:41;2.93;;;1.40;;
2386;SDS011;49473;50.772;8.768;2022-08-04T16:04:21;1.50;;;1.40;;
2386;SDS011;49473;50.772;8.768;2022-08-04T16:06:50;3.17;;;1.70;;
2386;SDS011;49473;50.772;8.768;2022-08-04T16:09:29;2.50;;;1.33;;
2386;SDS011;49473;50.772;8.768;2022-08-04T16:11:55;1.70;;;1.60;;
2386;SDS011;49473;50.772;8.768;2022-08-04T16:14:32;3.23;;;1.70;;
2386;SDS011;49473;50.772;8.768;2022-08-04T16:17:15;1.60;;;1.50;;
2386;SDS011;49473;50.772;8.768;2022-08-04T16:22:34;4.87;;;1.77;;